sensor_id;sensor_type;location;lat;lon;timestamp;pressure;altitude;pressure_sealevel;temperature;humidity
36092;BME280;22147;52.388;13.390;2022-10-15T00:01:31;100318.56;;;11.07;100.00
36092;BME280;22147;52.388;13.390;2022-10-15T00:03:59;100321.81;;;11.09;100.00
36092;BME280;22147;52.388;13.390;2022-10-15T00:06:28;100315.44;;;11.08;100.00
36092;BME280;22147;52.388;13.390;2022-10-15T00:08:55;100307.91;;;11.09;100.00
36092;BME280;22147;52.388;13.390;2022-10-15T00:11:25;100301.53;;;11.08;100.00
36092;BME280;22147;52.388;13.390;2022-10-15T00:13:57;100299.94;;;11.07;100.00
36092;BME280;22147;52.388;13.390;2022-10-15T00:16:28;100298.28;;;11.06;100.00
36092;BME280;22147;52.388;13.390;2022-10-15T00:18:57;100292.41;;;11.08;100.00
36092;BME280;22147;52.388;13.390;2022-10-15T00:21:26;100292.06;;;11.09;100.00
36092;BME280;22147;52.388;13.390;2022-10-15T00:23:53;100289.28;;;11.09;100.00
36092;BME280;22147;52.388;13.390;2022-10-15T00:26:27;100284.88;;;11.08;100.00
36092;BME280;22147;52.388;13.390;2022-10-15T00:29:02;100281.63;;;11.06;100.00
36092;BME280;22147;52.388;13.390;2022-10-15T00:31:31;100284.41;;;11.06;100.00
36092;BME280;22147;52.388;13.390;2022-10-15T00:34:00;100283.59;;;11.06;100.00
36092;BME280;22147;52.388;13.390;2022-10-15T00:36:33;100279.66;;;11.07;100.00
36092;BME280;22147;52.388;13.390;2022-10-15T00:39:04;100280.50;;;11.07;100.00
36092;BME280;22147;52.388;13.390;2022-10-15T00:41:37;100272.81;;;11.04;100.00
36092;BME280;22147;52.388;13.390;2022-10-15T00:47:28;100276.41;;;11.05;100.00
36092;BME280;22147;52.388;13.390;2022-10-15T00:50:14;100274.09;;;11.07;100.00
36092;BME280;22147;52.388;13.390;2022-10-15T00:53:01;100276.53;;;11.08;100.00
36092;BME280;22147;52.388;13.390;2022-10-15T00:55:37;100273.28;;;11.06;100.00
36092;BME280;22147;52.388;13.390;2022-10-15T00:58:17;100269.00;;;11.09;100.00
36092;BME280;22147;52.388;13.390;2022-10-15T01:00:55;100262.31;;;11.10;100.00
36092;BME280;22147;52.388;13.390;2022-10-15T01:03:22;100269.13;;;11.12;100.00
36092;BME280;22147;52.388;13.390;2022-10-15T01:05:51;100261.28;;;11.14;100.00
36092;BME280;22147;52.388;13.390;2022-10-15T01:08:19;100250.97;;;11.15;100.00
36092;BME280;22147;52.388;13.390;2022-10-15T01:17:23;100233.63;;;11.18;100.00
36092;BME280;22147;52.388;13.390;2022-10-15T01:20:26;100237.19;;;11.18;100.00
36092;BME280;22147;52.388;13.390;2022-10-15T01:41:44;100221.13;;;11.36;100.00
36092;BME280;22147;52.388;13.390;2022-10-15T01:44:31;100218.69;;;11.35;100.00
36092;BME280;22147;52.388;13.390;2022-10-15T01:47:33;100217.06;;;11.34;100.00
36092;BME280;22147;52.388;13.390;2022-10-15T01:50:19;100219.97;;;11.37;100.00
36092;BME280;22147;52.388;13.390;2022-10-15T01:52:54;100215.56;;;11.36;100.00
36092;BME280;22147;52.388;13.390;2022-10-15T01:55:26;100209.78;;;11.41;100.00
36092;BME280;22147;52.388;13.390;2022-10-15T01:57:58;100210.59;;;11.42;100.00
36092;BME280;22147;52.388;13.390;2022-10-15T02:00:27;100216.84;;;11.39;100.00
36092;BME280;22147;52.388;13.390;2022-10-15T02:03:02;100203.88;;;11.43;100.00
36092;BME280;22147;52.388;13.390;2022-10-15T02:06:05;100199.34;;;11.38;100.00
36092;BME280;22147;52.388;13.390;2022-10-15T02:08:47;100195.75;;;11.38;100.00
36092;BME280;22147;52.388;13.390;2022-10-15T02:11:18;100190.31;;;11.41;100.00
36092;BME280;22147;52.388;13.390;2022-10-15T02:14:27;100195.09;;;11.41;100.00
36092;BME280;22147;52.388;13.390;2022-10-15T02:17:10;100186.63;;;11.37;100.00
36092;BME280;22147;52.388;13.390;2022-10-15T02:23:27;100196.81;;;11.33;100.00
36092;BME280;22147;52.388;13.390;2022-10-15T02:26:06;100195.16;;;11.32;100.00
36092;BME280;22147;52.388;13.390;2022-10-15T02:28:41;100194.03;;;11.33;100.00
36092;BME280;22147;52.388;13.390;2022-10-15T02:31:16;100192.38;;;11.32;100.00
36092;BME280;22147;52.388;13.390;2022-10-15T02:33:49;100195.63;;;11.34;100.00
36092;BME280;22147;52.388;13.390;2022-10-15T02:36:20;100190.53;;;11.36;100.00
36092;BME280;22147;52.388;13.390;2022-10-15T02:38:50;100189.06;;;11.39;100.00
36092;BME280;22147;52.388;13.390;2022-10-15T02:41:21;100183.13;;;11.40;100.00
36092;BME280;22147;52.388;13.390;2022-10-15T02:43:49;100181.84;;;11.38;100.00
36092;BME280;22147;52.388;13.390;2022-10-15T02:46:19;100179.41;;;11.36;100.00
36092;BME280;22147;52.388;13.390;2022-10-15T02:48:46;100173.84;;;11.36;100.00
36092;BME280;22147;52.388;13.390;2022-10-15T02:51:13;100170.97;;;11.33;100.00
36092;BME280;22147;52.388;13.390;2022-10-15T02:53:40;100173.75;;;11.33;100.00
36092;BME280;22147;52.388;13.390;2022-10-15T02:56:07;100182.91;;;11.33;100.00
36092;BME280;22147;52.388;13.390;2022-10-15T02:58:35;100169.34;;;11.32;100.00
36092;BME280;22147;52.388;13.390;2022-10-15T03:01:03;100168.53;;;11.31;100.00
36092;BME280;22147;52.388;13.390;2022-10-15T03:03:31;100169.25;;;11.28;100.00
36092;BME280;22147;52.388;13.390;2022-10-15T03:05:58;100164.81;;;11.27;100.00
36092;BME280;22147;52.388;13.390;2022-10-15T03:08:25;100170.38;;;11.27;100.00
36092;BME280;22147;52.388;13.390;2022-10-15T03:10:52;100171.09;;;11.24;100.00
36092;BME280;22147;52.388;13.390;2022-10-15T03:13:19;100170.50;;;11.18;100.00
36092;BME280;22147;52.388;13.390;2022-10-15T03:15:47;100179.16;;;11.17;100.00
36092;BME280;22147;52.388;13.390;2022-10-15T03:18:14;100173.97;;;11.15;100.00
36092;BME280;22147;52.388;13.390;2022-10-15T03:20:41;100172.69;;;11.13;100.00
36092;BME280;22147;52.388;13.390;2022-10-15T03:23:08;100166.19;;;11.09;100.00
36092;BME280;22147;52.388;13.390;2022-10-15T03:25:35;100159.34;;;11.06;100.00
36092;BME280;22147;52.388;13.390;2022-10-15T03:28:02;100154.25;;;11.08;100.00
36092;BME280;22147;52.388;13.390;2022-10-15T03:30:30;100151.81;;;11.07;100.00
36092;BME280;22147;52.388;13.390;2022-10-15T03:32:57;100154.84;;;11.02;100.00
36092;BME280;22147;52.388;13.390;2022-10-15T03:35:24;100155.97;;;11.00;100.00
36092;BME280;22147;52.388;13.390;2022-10-15T03:37:51;100153.81;;;11.06;100.00
36092;BME280;22147;52.388;13.390;2022-10-15T03:40:18;100155.06;;;11.09;100.00
36092;BME280;22147;52.388;13.390;2022-10-15T03:42:50;100145.47;;;11.06;100.00
36092;BME280;22147;52.388;13.390;2022-10-15T03:45:19;100152.88;;;11.02;100.00
36092;BME280;22147;52.388;13.390;2022-10-15T03:47:46;100140.72;;;10.94;100.00
36092;BME280;22147;52.388;13.390;2022-10-15T03:50:14;100141.25;;;10.88;100.00
36092;BME280;22147;52.388;13.390;2022-10-15T03:52:41;100148.56;;;10.80;100.00
36092;BME280;22147;52.388;13.390;2022-10-15T03:55:10;100147.94;;;10.74;100.00
36092;BME280;22147;52.388;13.390;2022-10-15T03:57:38;100146.06;;;10.66;100.00
36092;BME280;22147;52.388;13.390;2022-10-15T04:00:07;100152.06;;;10.56;100.00
36092;BME280;22147;52.388;13.390;2022-10-15T04:02:35;100148.81;;;10.54;100.00
36092;BME280;22147;52.388;13.390;2022-10-15T04:05:02;100152.13;;;10.47;100.00
36092;BME280;22147;52.388;13.390;2022-10-15T04:07:29;100154.44;;;10.45;100.00
36092;BME280;22147;52.388;13.390;2022-10-15T04:09:56;100149.84;;;10.49;100.00
36092;BME280;22147;52.388;13.390;2022-10-15T04:12:23;100146.25;;;10.49;100.00
36092;BME280;22147;52.388;13.390;2022-10-15T04:14:51;100151.34;;;10.47;100.00
36092;BME280;22147;52.388;13.390;2022-10-15T04:17:18;100151.66;;;10.45;100.00
36092;BME280;22147;52.388;13.390;2022-10-15T04:19:45;100153.03;;;10.39;100.00
36092;BME280;22147;52.388;13.390;2022-10-15T04:22:12;100157.78;;;10.38;100.00
36092;BME280;22147;52.388;13.390;2022-10-15T04:24:39;100158.31;;;10.32;100.00
36092;BME280;22147;52.388;13.390;2022-10-15T04:27:06;100156.72;;;10.31;100.00
36092;BME280;22147;52.388;13.390;2022-10-15T04:29:33;100159.50;;;10.31;100.00
36092;BME280;22147;52.388;13.390;2022-10-15T04:32:00;100159.50;;;10.31;100.00
36092;BME280;22147;52.388;13.390;2022-10-15T04:34:28;100157.84;;;10.30;100.00
36092;BME280;22147;52.388;13.390;2022-10-15T04:36:55;100157.06;;;10.29;100.00
36092;BME280;22147;52.388;13.390;2022-10-15T04:39:22;100158.53;;;10.27;100.00
36092;BME280;22147;52.388;13.390;2022-10-15T04:41:49;100155.28;;;10.25;100.00
36092;BME280;22147;52.388;13.390;2022-10-15T04:44:16;100151.31;;;10.26;100.00
36092;BME280;22147;52.388;13.390;2022-10-15T04:46:43;100157.22;;;10.24;100.00
36092;BME280;22147;52.388;13.390;2022-10-15T04:49:10;100159.88;;;10.21;100.00
36092;BME280;22147;52.388;13.390;2022-10-15T04:51:37;100159.03;;;10.20;100.00
36092;BME280;22147;52.388;13.390;2022-10-15T04:54:05;100164.59;;;10.20;100.00
36092;BME280;22147;52.388;13.390;2022-10-15T04:56:32;100165.41;;;10.21;100.00
36092;BME280;22147;52.388;13.390;2022-10-15T04:58:59;100159.03;;;10.20;100.00
36092;BME280;22147;52.388;13.390;2022-10-15T05:01:26;100162.50;;;10.17;100.00
36092;BME280;22147;52.388;13.390;2022-10-15T05:03:53;100164.31;;;10.13;100.00
36092;BME280;22147;52.388;13.390;2022-10-15T05:06:21;100165.03;;;10.10;100.00
36092;BME280;22147;52.388;13.390;2022-10-15T05:08:50;100165.22;;;10.05;100.00
36092;BME280;22147;52.388;13.390;2022-10-15T05:11:24;100156.09;;;10.04;100.00
36092;BME280;22147;52.388;13.390;2022-10-15T05:13:55;100159.19;;;10.03;100.00
36092;BME280;22147;52.388;13.390;2022-10-15T05:16:27;100154.97;;;9.96;100.00
36092;BME280;22147;52.388;13.390;2022-10-15T05:18:58;100150.78;;;9.90;100.00
36092;BME280;22147;52.388;13.390;2022-10-15T05:21:33;100149.84;;;9.86;100.00
36092;BME280;22147;52.388;13.390;2022-10-15T05:24:01;100151.88;;;9.77;100.00
36092;BME280;22147;52.388;13.390;2022-10-15T05:26:30;100158.75;;;9.71;100.00
36092;BME280;22147;52.388;13.390;2022-10-15T05:28:59;100157.13;;;9.70;100.00
36092;BME280;22147;52.388;13.390;2022-10-15T05:31:29;100160.25;;;9.68;100.00
36092;BME280;22147;52.388;13.390;2022-10-15T05:33:58;100168.09;;;9.66;100.00
36092;BME280;22147;52.388;13.390;2022-10-15T05:36:28;100165.63;;;9.65;100.00
36092;BME280;22147;52.388;13.390;2022-10-15T05:38:59;100173.63;;;9.66;100.00
36092;BME280;22147;52.388;13.390;2022-10-15T05:41:29;100176.25;;;9.63;100.00
36092;BME280;22147;52.388;13.390;2022-10-15T05:43:57;100182.28;;;9.65;100.00
36092;BME280;22147;52.388;13.390;2022-10-15T05:46:25;100187.16;;;9.68;100.00
36092;BME280;22147;52.388;13.390;2022-10-15T05:48:57;100183.38;;;9.72;100.00
36092;BME280;22147;52.388;13.390;2022-10-15T05:51:26;100185.94;;;9.77;100.00
36092;BME280;22147;52.388;13.390;2022-10-15T05:53:56;100191.31;;;9.83;100.00
36092;BME280;22147;52.388;13.390;2022-10-15T05:56:26;100184.44;;;9.89;100.00
36092;BME280;22147;52.388;13.390;2022-10-15T05:58:53;100190.56;;;9.94;100.00
36092;BME280;22147;52.388;13.390;2022-10-15T06:01:21;100201.47;;;9.99;100.00
36092;BME280;22147;52.388;13.390;2022-10-15T06:03:48;100200.78;;;10.03;100.00
36092;BME280;22147;52.388;13.390;2022-10-15T06:06:19;100193.91;;;10.09;100.00
36092;BME280;22147;52.388;13.390;2022-10-15T06:08:49;100195.81;;;10.17;100.00
36092;BME280;22147;52.388;13.390;2022-10-15T06:11:16;100204.28;;;10.21;100.00
36092;BME280;22147;52.388;13.390;2022-10-15T06:13:45;100206.03;;;10.25;100.00
36092;BME280;22147;52.388;13.390;2022-10-15T06:16:16;100215.34;;;10.29;100.00
36092;BME280;22147;52.388;13.390;2022-10-15T06:18:51;100206.00;;;10.34;100.00
36092;BME280;22147;52.388;13.390;2022-10-15T06:21:20;100209.25;;;10.36;100.00
36092;BME280;22147;52.388;13.390;2022-10-15T06:23:47;100208.91;;;10.37;100.00
36092;BME280;22147;52.388;13.390;2022-10-15T06:26:15;100209.38;;;10.39;100.00
36092;BME280;22147;52.388;13.390;2022-10-15T06:28:42;100213.09;;;10.44;100.00
36092;BME280;22147;52.388;13.390;2022-10-15T06:31:09;100217.50;;;10.45;100.00
36092;BME280;22147;52.388;13.390;2022-10-15T06:33:36;100213.69;;;10.49;100.00
36092;BME280;22147;52.388;13.390;2022-10-15T06:36:09;100206.91;;;10.59;100.00
36092;BME280;22147;52.388;13.390;2022-10-15T06:38:36;100206.03;;;10.67;100.00
36092;BME280;22147;52.388;13.390;2022-10-15T06:41:08;100213.56;;;10.79;100.00
36092;BME280;22147;52.388;13.390;2022-10-15T06:43:35;100211.91;;;10.99;100.00
36092;BME280;22147;52.388;13.390;2022-10-15T06:46:04;100222.84;;;11.16;100.00
36092;BME280;22147;52.388;13.390;2022-10-15T06:48:32;100226.22;;;11.34;100.00
36092;BME280;22147;52.388;13.390;2022-10-15T06:51:00;100224.16;;;11.44;100.00
36092;BME280;22147;52.388;13.390;2022-10-15T06:53:29;100233.19;;;11.53;100.00
36092;BME280;22147;52.388;13.390;2022-10-15T06:55:59;100237.84;;;11.61;100.00
36092;BME280;22147;52.388;13.390;2022-10-15T06:58:28;100245.72;;;11.84;100.00
36092;BME280;22147;52.388;13.390;2022-10-15T07:01:04;100240.28;;;12.12;100.00
36092;BME280;22147;52.388;13.390;2022-10-15T07:03:32;100243.50;;;12.26;100.00
36092;BME280;22147;52.388;13.390;2022-10-15T07:06:05;100247.41;;;12.37;100.00
36092;BME280;22147;52.388;13.390;2022-10-15T07:08:35;100256.31;;;12.55;100.00
36092;BME280;22147;52.388;13.390;2022-10-15T07:11:05;100262.19;;;12.66;100.00
36092;BME280;22147;52.388;13.390;2022-10-15T07:13:35;100262.59;;;12.80;100.00
36092;BME280;22147;52.388;13.390;2022-10-15T07:16:09;100273.16;;;12.87;100.00
36092;BME280;22147;52.388;13.390;2022-10-15T07:18:38;100270.91;;;12.93;100.00
36092;BME280;22147;52.388;13.390;2022-10-15T07:21:08;100269.28;;;12.92;100.00
36092;BME280;22147;52.388;13.390;2022-10-15T07:23:56;100262.25;;;12.82;100.00
36092;BME280;22147;52.388;13.390;2022-10-15T07:26:23;100255.00;;;12.93;100.00
36092;BME280;22147;52.388;13.390;2022-10-15T07:28:50;100256.13;;;13.20;100.00
36092;BME280;22147;52.388;13.390;2022-10-15T07:31:17;100259.22;;;13.31;100.00
36092;BME280;22147;52.388;13.390;2022-10-15T07:33:44;100248.59;;;13.21;100.00
36092;BME280;22147;52.388;13.390;2022-10-15T07:36:11;100252.97;;;13.06;100.00
36092;BME280;22147;52.388;13.390;2022-10-15T07:38:38;100252.31;;;12.97;100.00
36092;BME280;22147;52.388;13.390;2022-10-15T07:41:08;100250.72;;;13.12;100.00
36092;BME280;22147;52.388;13.390;2022-10-15T07:43:37;100250.09;;;13.18;100.00
36092;BME280;22147;52.388;13.390;2022-10-15T07:46:05;100251.00;;;13.22;100.00
36092;BME280;22147;52.388;13.390;2022-10-15T07:48:32;100250.56;;;13.20;100.00
36092;BME280;22147;52.388;13.390;2022-10-15T07:51:04;100249.03;;;13.23;100.00
36092;BME280;22147;52.388;13.390;2022-10-15T07:53:33;100259.03;;;13.24;100.00
36092;BME280;22147;52.388;13.390;2022-10-15T07:56:05;100252.88;;;13.18;100.00
36092;BME280;22147;52.388;13.390;2022-10-15T07:58:34;100258.16;;;13.08;100.00
36092;BME280;22147;52.388;13.390;2022-10-15T08:01:09;100261.88;;;13.12;100.00
36092;BME280;22147;52.388;13.390;2022-10-15T08:03:37;100262.31;;;13.14;100.00
36092;BME280;22147;52.388;13.390;2022-10-15T08:06:06;100256.91;;;13.05;100.00
36092;BME280;22147;52.388;13.390;2022-10-15T08:08:35;100254.03;;;13.01;100.00
36092;BME280;22147;52.388;13.390;2022-10-15T08:11:13;100253.50;;;13.12;100.00
36092;BME280;22147;52.388;13.390;2022-10-15T08:13:42;100252.50;;;13.32;100.00
36092;BME280;22147;52.388;13.390;2022-10-15T08:16:15;100266.09;;;13.50;100.00
36092;BME280;22147;52.388;13.390;2022-10-15T08:18:42;100267.53;;;13.75;100.00
36092;BME280;22147;52.388;13.390;2022-10-15T08:21:11;100265.53;;;13.92;100.00
36092;BME280;22147;52.388;13.390;2022-10-15T08:23:38;100271.13;;;14.08;100.00
36092;BME280;22147;52.388;13.390;2022-10-15T08:26:06;100269.03;;;14.20;100.00
36092;BME280;22147;52.388;13.390;2022-10-15T08:28:34;100270.50;;;14.34;100.00
36092;BME280;22147;52.388;13.390;2022-10-15T08:31:03;100268.69;;;14.06;100.00
36092;BME280;22147;52.388;13.390;2022-10-15T08:33:36;100269.19;;;14.12;100.00
36092;BME280;22147;52.388;13.390;2022-10-15T08:36:07;100271.22;;;14.31;100.00
36092;BME280;22147;52.388;13.390;2022-10-15T08:38:34;100279.41;;;14.75;100.00
36092;BME280;22147;52.388;13.390;2022-10-15T08:41:23;100269.75;;;15.11;100.00
36092;BME280;22147;52.388;13.390;2022-10-15T08:44:02;100272.91;;;15.29;100.00
36092;BME280;22147;52.388;13.390;2022-10-15T08:46:41;100273.34;;;15.31;100.00
36092;BME280;22147;52.388;13.390;2022-10-15T08:52:25;100280.72;;;15.20;100.00
36092;BME280;22147;52.388;13.390;2022-10-15T08:55:34;100280.94;;;14.72;100.00
36092;BME280;22147;52.388;13.390;2022-10-15T08:58:23;100283.88;;;14.79;100.00
36092;BME280;22147;52.388;13.390;2022-10-15T09:01:08;100279.47;;;14.59;100.00
36092;BME280;22147;52.388;13.390;2022-10-15T09:04:23;100284.28;;;14.58;100.00
36092;BME280;22147;52.388;13.390;2022-10-15T09:07:24;100290.00;;;14.65;100.00
36092;BME280;22147;52.388;13.390;2022-10-15T09:13:32;100286.69;;;14.79;100.00
36092;BME280;22147;52.388;13.390;2022-10-15T09:16:17;100293.69;;;14.89;100.00
36092;BME280;22147;52.388;13.390;2022-10-15T09:19:16;100286.53;;;15.11;100.00
36092;BME280;22147;52.388;13.390;2022-10-15T09:21:48;100294.47;;;15.29;100.00
36092;BME280;22147;52.388;13.390;2022-10-15T09:24:22;100291.88;;;15.39;100.00
36092;BME280;22147;52.388;13.390;2022-10-15T09:27:09;100292.78;;;15.24;100.00
36092;BME280;22147;52.388;13.390;2022-10-15T09:33:05;100295.34;;;15.13;100.00
36092;BME280;22147;52.388;13.390;2022-10-15T09:35:59;100294.72;;;15.43;100.00
36092;BME280;22147;52.388;13.390;2022-10-15T09:42:19;100296.03;;;15.49;100.00
36092;BME280;22147;52.388;13.390;2022-10-15T09:44:39;100306.56;;;15.56;100.00
36092;BME280;22147;52.388;13.390;2022-10-15T09:47:27;100304.84;;;15.71;100.00
36092;BME280;22147;52.388;13.390;2022-10-15T09:50:04;100311.41;;;15.59;100.00
36092;BME280;22147;52.388;13.390;2022-10-15T09:53:17;100315.19;;;15.47;100.00
36092;BME280;22147;52.388;13.390;2022-10-15T09:56:19;100303.25;;;15.50;100.00
36092;BME280;22147;52.388;13.390;2022-10-15T09:58:54;100303.81;;;15.59;100.00
36092;BME280;22147;52.388;13.390;2022-10-15T10:01:32;100305.13;;;15.65;100.00
36092;BME280;22147;52.388;13.390;2022-10-15T10:06:52;100315.56;;;15.88;100.00
36092;BME280;22147;52.388;13.390;2022-10-15T10:09:31;100309.19;;;15.91;100.00
36092;BME280;22147;52.388;13.390;2022-10-15T10:12:07;100310.31;;;16.10;100.00
36092;BME280;22147;52.388;13.390;2022-10-15T10:15:02;100316.00;;;16.17;100.00
36092;BME280;22147;52.388;13.390;2022-10-15T10:17:35;100314.78;;;16.41;100.00
36092;BME280;22147;52.388;13.390;2022-10-15T10:41:57;100316.66;;;16.60;100.00
36092;BME280;22147;52.388;13.390;2022-10-15T10:44:40;100319.25;;;16.72;100.00
36092;BME280;22147;52.388;13.390;2022-10-15T10:47:18;100311.13;;;16.94;100.00
36092;BME280;22147;52.388;13.390;2022-10-15T10:52:34;100323.03;;;17.17;100.00
36092;BME280;22147;52.388;13.390;2022-10-15T10:55:21;100332.69;;;17.20;100.00
36092;BME280;22147;52.388;13.390;2022-10-15T10:57:56;100331.91;;;16.89;100.00
36092;BME280;22147;52.388;13.390;2022-10-15T11:00:48;100327.66;;;16.72;100.00
36092;BME280;22147;52.388;13.390;2022-10-15T11:03:31;100334.53;;;16.78;100.00
36092;BME280;22147;52.388;13.390;2022-10-15T11:06:24;100330.66;;;16.86;100.00
36092;BME280;22147;52.388;13.390;2022-10-15T11:19:08;100330.00;;;16.97;100.00
36092;BME280;22147;52.388;13.390;2022-10-15T11:25:37;100313.72;;;17.09;100.00
36092;BME280;22147;52.388;13.390;2022-10-15T11:29:04;100312.28;;;16.89;100.00
36092;BME280;22147;52.388;13.390;2022-10-15T11:32:27;100316.16;;;17.11;100.00
36092;BME280;22147;52.388;13.390;2022-10-15T11:35:34;100307.47;;;17.23;100.00
36092;BME280;22147;52.388;13.390;2022-10-15T11:38:38;100306.66;;;17.23;100.00
36092;BME280;22147;52.388;13.390;2022-10-15T11:42:17;100309.06;;;17.24;100.00
36092;BME280;22147;52.388;13.390;2022-10-15T11:44:50;100301.22;;;17.03;100.00
36092;BME280;22147;52.388;13.390;2022-10-15T11:48:10;100296.63;;;16.61;100.00
36092;BME280;22147;52.388;13.390;2022-10-15T11:53:52;100304.16;;;16.27;100.00
36092;BME280;22147;52.388;13.390;2022-10-15T11:56:33;100305.63;;;16.44;100.00
36092;BME280;22147;52.388;13.390;2022-10-15T11:59:31;100308.06;;;16.76;100.00
36092;BME280;22147;52.388;13.390;2022-10-15T12:05:07;100295.28;;;17.08;100.00
36092;BME280;22147;52.388;13.390;2022-10-15T12:07:49;100293.63;;;17.41;100.00
36092;BME280;22147;52.388;13.390;2022-10-15T12:16:44;100292.47;;;17.08;100.00
36092;BME280;22147;52.388;13.390;2022-10-15T12:19:21;100299.50;;;16.95;100.00
36092;BME280;22147;52.388;13.390;2022-10-15T12:27:21;100304.44;;;17.02;100.00
36092;BME280;22147;52.388;13.390;2022-10-15T12:30:12;100308.22;;;16.86;100.00
36092;BME280;22147;52.388;13.390;2022-10-15T12:32:47;100309.06;;;16.91;100.00
36092;BME280;22147;52.388;13.390;2022-10-15T12:37:46;100316.47;;;16.76;100.00
36092;BME280;22147;52.388;13.390;2022-10-15T12:43:11;100312.06;;;16.75;100.00
36092;BME280;22147;52.388;13.390;2022-10-15T12:45:56;100319.41;;;16.83;100.00
36092;BME280;22147;52.388;13.390;2022-10-15T12:48:38;100314.25;;;16.88;100.00
36092;BME280;22147;52.388;13.390;2022-10-15T12:53:45;100309.94;;;16.95;100.00
36092;BME280;22147;52.388;13.390;2022-10-15T12:58:51;100303.91;;;16.93;100.00
36092;BME280;22147;52.388;13.390;2022-10-15T13:09:03;100298.66;;;16.91;100.00
36092;BME280;22147;52.388;13.390;2022-10-15T13:11:56;100299.63;;;17.02;100.00
36092;BME280;22147;52.388;13.390;2022-10-15T13:14:49;100297.25;;;17.04;100.00
36092;BME280;22147;52.388;13.390;2022-10-15T13:17:21;100300.06;;;17.08;100.00
36092;BME280;22147;52.388;13.390;2022-10-15T13:22:35;100302.53;;;17.13;100.00
36092;BME280;22147;52.388;13.390;2022-10-15T13:25:03;100305.69;;;17.08;100.00
36092;BME280;22147;52.388;13.390;2022-10-15T13:27:40;100296.09;;;17.09;100.00
36092;BME280;22147;52.388;13.390;2022-10-15T13:30:14;100290.84;;;17.07;100.00
36092;BME280;22147;52.388;13.390;2022-10-15T13:32:55;100290.78;;;17.00;100.00
36092;BME280;22147;52.388;13.390;2022-10-15T13:35:28;100301.19;;;17.00;100.00
36092;BME280;22147;52.388;13.390;2022-10-15T13:38:02;100289.19;;;17.03;100.00
36092;BME280;22147;52.388;13.390;2022-10-15T13:40:31;100287.25;;;17.07;100.00
36092;BME280;22147;52.388;13.390;2022-10-15T13:43:05;100293.75;;;17.15;100.00
36092;BME280;22147;52.388;13.390;2022-10-15T13:46:14;100295.41;;;17.19;100.00
36092;BME280;22147;52.388;13.390;2022-10-15T13:48:41;100289.91;;;17.30;100.00
36092;BME280;22147;52.388;13.390;2022-10-15T13:51:10;100290.28;;;17.28;100.00
36092;BME280;22147;52.388;13.390;2022-10-15T13:53:40;100291.44;;;17.24;100.00
36092;BME280;22147;52.388;13.390;2022-10-15T13:56:31;100297.25;;;17.08;100.00
36092;BME280;22147;52.388;13.390;2022-10-15T13:59:01;100296.56;;;17.15;100.00
36092;BME280;22147;52.388;13.390;2022-10-15T14:01:31;100292.84;;;17.07;100.00
36092;BME280;22147;52.388;13.390;2022-10-15T14:04:02;100290.47;;;17.09;100.00
36092;BME280;22147;52.388;13.390;2022-10-15T14:06:35;100288.81;;;17.04;100.00
36092;BME280;22147;52.388;13.390;2022-10-15T14:09:19;100290.47;;;17.09;100.00
36092;BME280;22147;52.388;13.390;2022-10-15T14:11:53;100296.09;;;17.09;100.00
36092;BME280;22147;52.388;13.390;2022-10-15T14:14:39;100291.66;;;17.08;100.00
36092;BME280;22147;52.388;13.390;2022-10-15T14:17:20;100289.38;;;17.17;100.00
36092;BME280;22147;52.388;13.390;2022-10-15T14:20:05;100287.84;;;17.27;100.00
36092;BME280;22147;52.388;13.390;2022-10-15T14:22:53;100295.88;;;17.66;100.00
36092;BME280;22147;52.388;13.390;2022-10-15T14:25:24;100298.50;;;17.85;100.00
36092;BME280;22147;52.388;13.390;2022-10-15T14:27:52;100286.38;;;17.81;100.00
36092;BME280;22147;52.388;13.390;2022-10-15T14:30:29;100287.25;;;17.44;100.00
36092;BME280;22147;52.388;13.390;2022-10-15T14:32:59;100285.88;;;17.27;100.00
36092;BME280;22147;52.388;13.390;2022-10-15T14:35:36;100289.75;;;17.16;100.00
36092;BME280;22147;52.388;13.390;2022-10-15T14:38:15;100296.44;;;17.04;100.00
36092;BME280;22147;52.388;13.390;2022-10-15T14:41:02;100289.97;;;17.00;100.00
36092;BME280;22147;52.388;13.390;2022-10-15T14:43:36;100297.25;;;17.04;100.00
36092;BME280;22147;52.388;13.390;2022-10-15T14:46:14;100303.16;;;16.99;100.00
36092;BME280;22147;52.388;13.390;2022-10-15T14:48:44;100299.50;;;16.92;100.00
36092;BME280;22147;52.388;13.390;2022-10-15T14:51:22;100297.69;;;16.80;100.00
36092;BME280;22147;52.388;13.390;2022-10-15T14:53:52;100300.41;;;16.73;100.00
36092;BME280;22147;52.388;13.390;2022-10-15T14:56:31;100289.00;;;16.58;100.00
36092;BME280;22147;52.388;13.390;2022-10-15T14:58:59;100298.88;;;16.48;100.00
36092;BME280;22147;52.388;13.390;2022-10-15T15:01:27;100297.06;;;16.33;100.00
36092;BME280;22147;52.388;13.390;2022-10-15T15:03:58;100299.31;;;16.24;100.00
36092;BME280;22147;52.388;13.390;2022-10-15T15:06:25;100303.63;;;16.18;100.00
36092;BME280;22147;52.388;13.390;2022-10-15T15:08:51;100298.41;;;16.16;100.00
36092;BME280;22147;52.388;13.390;2022-10-15T15:11:23;100303.03;;;16.05;100.00
36092;BME280;22147;52.388;13.390;2022-10-15T15:13:52;100304.53;;;15.99;100.00